CST,Max TemperatureF,Mean TemperatureF,Min TemperatureF,Max Dew PointF,MeanDew PointF,Min DewpointF,Max Humidity, Mean Humidity, Min Humidity, Max Sea Level PressureIn, Mean Sea Level PressureIn, Min Sea Level PressureIn, Max VisibilityMiles, Mean VisibilityMiles, Min VisibilityMiles, Max Wind SpeedMPH, Mean Wind SpeedMPH, Max Gust SpeedMPH,PrecipitationIn, CloudCover, Events, WindDirDegrees
2012-12-1,69,51,33,55,46,34,100,86,60,30.30,30.23,30.19,10,8,0,12,2,17,0.00,1,Fog,154
2012-12-2,73,62,51,61,56,50,100,87,57,30.30,30.23,30.18,10,8,1,12,4,,0.00,3,,163
2012-12-3,73,60,46,59,55,46,100,83,50,30.26,30.19,30.14,10,8,0,12,4,,0.00,2,Fog,160
2012-12-4,68,62,55,64,59,54,100,94,83,30.23,30.19,30.13,10,9,4,17,5,26,0.50,8,Rain,162
2012-12-5,59,56,53,57,55,54,100,96,88,30.22,30.16,30.09,10,7,1,8,3,,0.09,8,Rain,30
2012-12-6,68,60,51,59,56,50,100,90,73,30.08,30.01,29.97,10,8,0,6,2,,0.00,5,Fog,137
2012-12-7,64,58,53,59,56,52,100,92,77,30.01,29.96,29.90,10,8,0,10,4,,0.00,6,Fog,147
2012-12-8,73,64,55,61,58,55,100,88,53,29.99,29.95,29.89,10,6,0,9,1,,0.00,6,Fog-Thunderstorm,171
2012-12-9,73,64,55,63,59,54,100,87,53,30.01,29.93,29.81,10,8,1,10,4,16,0.00,5,,165
2012-12-10,68,52,35,64,46,32,100,92,81,30.04,29.87,29.75,10,9,2,12,5,21,0.59,7,Rain-Thunderstorm,301
2012-12-11,44,37,30,32,30,28,100,79,53,30.24,30.14,30.04,10,10,10,10,5,,0.00,3,,8
2012-12-12,50,40,28,32,28,21,93,76,34,30.33,30.27,30.22,10,10,10,9,2,,0.00,1,,350
2012-12-13,57,42,26,34,29,25,100,75,29,30.41,30.33,30.27,10,10,7,6,1,,0.00,0,,29
2012-12-14,60,44,28,45,37,27,100,77,48,30.33,30.24,30.13,10,10,10,13,3,17,0.00,1,Rain,134
2012-12-15,64,55,46,57,50,45,93,84,68,30.13,30.02,29.92,10,10,10,15,7,25,0.00,6,Rain,149
2012-12-16,62,58,55,59,57,55,100,95,88,29.93,29.86,29.75,10,8,2,16,6,25,1.69,8,Rain-Thunderstorm,170
2012-12-17,66,56,44,57,53,43,100,88,59,29.88,29.77,29.68,10,10,4,10,4,18,0.00,4,,229
2012-12-18,62,47,32,45,40,32,100,78,45,30.00,29.94,29.88,10,8,0,7,2,,0.00,0,Fog,168
2012-12-19,71,55,39,54,44,39,100,70,33,30.04,29.95,29.83,10,10,5,15,4,22,0.00,0,,151
2012-12-20,64,52,41,63,40,21,100,67,45,30.17,29.89,29.64,10,10,2,22,12,36,0.25,4,Rain,253
2012-12-21,50,39,28,25,18,9,86,47,19,30.35,30.28,30.16,10,10,10,14,8,25,0.00,0,,295
2012-12-22,60,42,24,34,27,23,100,69,25,30.39,30.30,30.19,10,10,7,6,1,,0.00,0,,198
2012-12-23,53,43,33,52,42,30,100,87,66,30.18,30.06,29.89,10,9,4,10,4,,0.19,6,Rain,174
2012-12-24,64,54,44,55,51,43,100,88,63,29.93,29.88,29.82,10,8,2,13,4,21,0.00,3,Thunderstorm,247
2012-12-25,51,48,44,52,46,41,100,95,76,29.95,29.73,29.45,10,7,2,21,6,28,1.82,5,Rain-Thunderstorm,52
2012-12-26,44,38,32,39,30,27,93,86,76,30.20,29.94,29.53,10,10,5,17,11,30,0.01,8,Rain,288
2012-12-27,41,36,30,32,30,27,100,85,65,30.21,30.14,30.05,10,10,10,9,3,,0.00,4,,65
2012-12-28,44,40,35,43,37,32,100,94,87,30.07,29.93,29.74,10,6,1,17,6,22,1.04,8,Rain,120
2012-12-29,39,34,28,37,30,23,93,83,65,30.44,30.20,29.91,10,10,7,10,6,21,0.01,6,,298
2012-12-30,44,32,21,32,27,21,100,81,49,30.55,30.45,30.35,10,9,5,9,1,,0.00,0,,45
2012-12-31,50,40,30,46,35,28,100,81,62,30.35,30.22,30.01,10,10,10,12,3,17,0.00,6,,150